Time;durP1;ratioP1;P1;durP2;ratioP2;P2;SDS_P1;SDS_P2;PMS_P1;PMS_P2;Temp;Humidity;BMP_temperature;BMP_pressure;BME280_temperature;BME280_humidity;BME280_pressure;Samples;Min_cycle;Max_cycle;Signal;HPM_P1;HPM_P2
2022/01/09 00:01:45;;;;;;;;;;;6.10;99.90;;;;;;5008795;28;20082;-72
2022/01/09 00:04:12;;;;;;;;;;;6.00;99.90;;;;;;5007823;28;21408;-71
2022/01/09 00:06:39;;;;;;;;;;;6.00;99.90;;;;;;5007866;28;20113;-71
2022/01/09 00:09:06;;;;;;;;;;;6.00;99.90;;;;;;5008305;28;20162;-72
2022/01/09 00:11:33;;;;;;;;;;;6.00;99.90;;;;;;5008451;28;20093;-71
2022/01/09 00:14:00;;;;;;;;;;;5.90;99.90;;;;;;5007556;28;20058;-72
2022/01/09 00:16:27;;;;;;;;;;;5.90;99.90;;;;;;5008317;28;20051;-71
2022/01/09 00:18:56;;;;;;;;;;;5.90;99.90;;;;;;5007393;28;21223;-71
2022/01/09 00:21:23;;;;;;;;;;;5.90;99.90;;;;;;5008224;28;20257;-71
2022/01/09 00:23:50;;;;;;;;;;;5.80;99.90;;;;;;5007740;28;20108;-71
2022/01/09 00:26:17;;;;;;;;;;;5.80;99.90;;;;;;5007479;28;20066;-71
2022/01/09 00:28:45;;;;;;;;;;;5.80;99.90;;;;;;5006212;28;20082;-72
2022/01/09 00:31:13;;;;;;;;;;;5.80;99.90;;;;;;5007598;28;20307;-72
2022/01/09 00:33:40;;;;;;;;;;;5.70;99.90;;;;;;5007334;28;20173;-72
2022/01/09 00:36:09;;;;;;;;;;;5.70;99.90;;;;;;5007778;28;21155;-71
2022/01/09 00:38:36;;;;;;;;;;;5.70;99.90;;;;;;5007365;28;20066;-71
2022/01/09 00:41:03;;;;;;;;;;;5.50;99.90;;;;;;5007611;28;20066;-71
2022/01/09 00:43:31;;;;;;;;;;;5.40;99.90;;;;;;5006951;28;20099;-71
2022/01/09 00:45:57;;;;;;;;;;;5.30;99.90;;;;;;5007547;28;20051;-71
2022/01/09 00:48:25;;;;;;;;;;;5.30;99.90;;;;;;5006103;28;20091;-72
2022/01/09 00:50:52;;;;;;;;;;;5.30;99.90;;;;;;5006275;28;20089;-72
2022/01/09 00:53:21;;;;;;;;;;;5.30;99.90;;;;;;5006525;28;20068;-71
2022/01/09 00:55:48;;;;;;;;;;;5.30;99.90;;;;;;5006803;28;20060;-71
2022/01/09 00:58:15;;;;;;;;;;;5.30;99.90;;;;;;5005305;28;20173;-72
2022/01/09 01:00:42;;;;;;;;;;;5.40;99.90;;;;;;5005782;28;20140;-72
2022/01/09 01:03:09;;;;;;;;;;;5.40;99.90;;;;;;5004210;28;20068;-70
2022/01/09 01:05:36;;;;;;;;;;;5.40;99.90;;;;;;5004958;28;20068;-70
2022/01/09 01:08:04;;;;;;;;;;;5.40;99.90;;;;;;5004541;28;21107;-70
2022/01/09 01:10:33;;;;;;;;;;;5.40;99.90;;;;;;5005150;28;20132;-71
2022/01/09 01:13:00;;;;;;;;;;;5.40;99.90;;;;;;5004443;28;20093;-72
2022/01/09 01:15:27;;;;;;;;;;;5.40;99.90;;;;;;5004188;28;20099;-72
2022/01/09 01:17:54;;;;;;;;;;;5.30;99.90;;;;;;5003645;28;20164;-71
2022/01/09 01:20:23;;;;;;;;;;;5.30;99.90;;;;;;5005998;28;20069;-72
2022/01/09 01:22:51;;;;;;;;;;;5.30;99.90;;;;;;5032927;28;20051;-72
2022/01/09 01:25:18;;;;;;;;;;;5.30;99.90;;;;;;5034731;28;21094;-72
2022/01/09 01:27:47;;;;;;;;;;;5.20;99.90;;;;;;5031579;28;20066;-72
2022/01/09 01:30:14;;;;;;;;;;;5.20;99.90;;;;;;5021731;28;20051;-71
2022/01/09 01:32:42;;;;;;;;;;;5.20;99.90;;;;;;5003726;28;20051;-72
2022/01/09 01:35:10;;;;;;;;;;;5.10;99.90;;;;;;5005186;28;20051;-71
2022/01/09 01:37:41;;;;;;;;;;;5.10;99.90;;;;;;5004283;28;21072;-71
2022/01/09 01:40:08;;;;;;;;;;;5.00;99.90;;;;;;5004375;28;20083;-73
2022/01/09 01:42:35;;;;;;;;;;;4.90;99.90;;;;;;5004050;28;20191;-71
2022/01/09 01:45:05;;;;;;;;;;;4.80;99.90;;;;;;5003718;28;20069;-71
2022/01/09 01:47:32;;;;;;;;;;;4.70;99.90;;;;;;5018081;28;20060;-71
2022/01/09 01:49:59;;;;;;;;;;;4.70;99.90;;;;;;5003858;28;20059;-71
2022/01/09 01:52:31;;;;;;;;;;;4.70;99.90;;;;;;5003331;28;21194;-71
2022/01/09 01:54:58;;;;;;;;;;;4.70;99.90;;;;;;5004254;28;21348;-71
2022/01/09 01:57:26;;;;;;;;;;;4.70;99.90;;;;;;5003392;28;20092;-71
2022/01/09 01:59:53;;;;;;;;;;;4.70;99.90;;;;;;5002803;28;21144;-72
2022/01/09 02:02:22;;;;;;;;;;;4.60;99.90;;;;;;5003545;28;20212;-68
2022/01/09 02:04:49;;;;;;;;;;;4.60;99.90;;;;;;5003828;28;20162;-71
2022/01/09 02:07:16;;;;;;;;;;;4.70;99.90;;;;;;5002775;28;20099;-72
2022/01/09 02:09:44;;;;;;;;;;;4.70;99.90;;;;;;5003249;28;20140;-73
2022/01/09 02:12:11;;;;;;;;;;;4.70;99.90;;;;;;5003097;28;20060;-71
2022/01/09 02:14:43;;;;;;;;;;;4.70;99.90;;;;;;5003797;28;20072;-71
2022/01/09 02:17:10;;;;;;;;;;;4.70;99.90;;;;;;5003682;28;20132;-72
2022/01/09 02:19:38;;;;;;;;;;;4.70;99.90;;;;;;5003326;28;20183;-71
2022/01/09 02:22:11;;;;;;;;;;;4.70;99.90;;;;;;5002696;28;21110;-71
2022/01/09 02:24:38;;;;;;;;;;;4.70;99.90;;;;;;5003643;28;20075;-72
2022/01/09 02:27:06;;;;;;;;;;;4.70;99.90;;;;;;5002509;28;21186;-71
2022/01/09 02:29:33;;;;;;;;;;;4.70;99.90;;;;;;5003304;28;21055;-71
2022/01/09 02:32:00;;;;;;;;;;;4.70;99.90;;;;;;5003196;28;20052;-71
2022/01/09 02:34:27;;;;;;;;;;;4.70;99.90;;;;;;5003286;28;20067;-71
2022/01/09 02:36:54;;;;;;;;;;;4.70;99.90;;;;;;5002750;28;20051;-72
2022/01/09 02:39:23;;;;;;;;;;;4.70;99.90;;;;;;5002893;28;20075;-71
2022/01/09 02:41:50;;;;;;;;;;;4.70;99.90;;;;;;5003298;28;20085;-71
2022/01/09 02:44:18;;;;;;;;;;;4.70;99.90;;;;;;5003197;28;20052;-72
2022/01/09 02:46:56;;;;;;;;;;;4.60;99.90;;;;;;5003188;28;20133;-72
2022/01/09 02:49:25;;;;;;;;;;;4.60;99.90;;;;;;5003126;28;21043;-70
2022/01/09 02:51:52;;;;;;;;;;;4.70;99.90;;;;;;5002614;28;20416;-72
2022/01/09 02:57:06;;;;;;;;;;;4.60;99.90;;;;;;5002449;28;20118;-72
2022/01/09 02:59:33;;;;;;;;;;;4.60;99.90;;;;;;5002290;28;20060;-72
2022/01/09 03:02:00;;;;;;;;;;;4.60;99.90;;;;;;5002445;28;20180;-72
2022/01/09 03:04:27;;;;;;;;;;;4.60;99.90;;;;;;5003216;28;20060;-71
2022/01/09 03:06:54;;;;;;;;;;;4.60;99.90;;;;;;5002900;28;20060;-72
2022/01/09 03:09:22;;;;;;;;;;;4.60;99.90;;;;;;5002209;28;20161;-72
2022/01/09 03:11:50;;;;;;;;;;;4.60;99.90;;;;;;5002609;28;20057;-72
2022/01/09 03:14:18;;;;;;;;;;;4.60;99.90;;;;;;5003045;28;20153;-71
2022/01/09 03:16:45;;;;;;;;;;;4.40;99.90;;;;;;5003124;28;20076;-72
2022/01/09 03:19:12;;;;;;;;;;;4.40;99.90;;;;;;5005055;28;20060;-72
2022/01/09 03:21:39;;;;;;;;;;;4.50;99.90;;;;;;5007270;28;20051;-71
2022/01/09 03:24:07;;;;;;;;;;;4.50;99.90;;;;;;5006892;28;21185;-71
2022/01/09 03:26:34;;;;;;;;;;;4.50;99.90;;;;;;5006960;28;20055;-73
2022/01/09 03:29:01;;;;;;;;;;;4.60;99.90;;;;;;5006469;28;20069;-71
2022/01/09 03:31:30;;;;;;;;;;;4.60;99.90;;;;;;5006616;28;20059;-72
2022/01/09 03:33:57;;;;;;;;;;;4.80;99.90;;;;;;5006777;28;20068;-72
2022/01/09 03:36:24;;;;;;;;;;;4.90;99.90;;;;;;5006454;28;20060;-72
2022/01/09 03:38:51;;;;;;;;;;;5.00;99.90;;;;;;5005460;28;20075;-72
2022/01/09 03:41:18;;;;;;;;;;;5.00;99.90;;;;;;5006819;28;20073;-72
2022/01/09 03:43:45;;;;;;;;;;;5.00;99.90;;;;;;5006348;28;20108;-72
2022/01/09 03:46:13;;;;;;;;;;;5.10;99.90;;;;;;5006316;28;20057;-72
2022/01/09 03:48:41;;;;;;;;;;;5.10;99.90;;;;;;5005546;28;21073;-72
2022/01/09 03:51:10;;;;;;;;;;;5.20;99.90;;;;;;5007067;28;20060;-72
2022/01/09 03:53:38;;;;;;;;;;;5.20;99.90;;;;;;5006031;28;20270;-72
2022/01/09 03:56:05;;;;;;;;;;;5.20;99.90;;;;;;5006090;28;20133;-73
2022/01/09 03:58:35;;;;;;;;;;;5.30;99.90;;;;;;5005890;28;20152;-72
2022/01/09 04:01:03;;;;;;;;;;;5.30;99.90;;;;;;5005985;28;20124;-72
2022/01/09 04:03:30;;;;;;;;;;;5.30;99.90;;;;;;5005691;28;21166;-72
2022/01/09 04:06:00;;;;;;;;;;;5.30;99.90;;;;;;5006032;28;20149;-71
2022/01/09 04:08:27;;;;;;;;;;;5.30;99.90;;;;;;5005578;28;20058;-71
2022/01/09 04:10:55;;;;;;;;;;;5.30;99.90;;;;;;5006194;28;20052;-71
2022/01/09 04:13:22;;;;;;;;;;;5.30;99.90;;;;;;5006318;28;20061;-72
2022/01/09 04:15:50;;;;;;;;;;;5.20;99.90;;;;;;5006173;28;20080;-71
2022/01/09 04:18:18;;;;;;;;;;;5.30;99.90;;;;;;5005212;28;20059;-71
2022/01/09 04:20:45;;;;;;;;;;;5.30;99.90;;;;;;5005778;28;20153;-72
2022/01/09 04:23:14;;;;;;;;;;;5.30;99.90;;;;;;5005897;28;20068;-71
2022/01/09 04:25:41;;;;;;;;;;;5.30;99.90;;;;;;5005927;28;20140;-71
2022/01/09 04:28:08;;;;;;;;;;;5.30;99.90;;;;;;5005055;28;20083;-72
2022/01/09 04:30:36;;;;;;;;;;;5.30;99.90;;;;;;5004863;28;20134;-71
2022/01/09 04:33:03;;;;;;;;;;;5.30;99.90;;;;;;5004757;28;20052;-70
2022/01/09 04:35:30;;;;;;;;;;;5.30;99.90;;;;;;5005862;28;20161;-72
2022/01/09 04:37:58;;;;;;;;;;;5.30;99.90;;;;;;5004487;28;20068;-72
2022/01/09 04:40:27;;;;;;;;;;;5.40;99.90;;;;;;5005150;28;20075;-72
2022/01/09 04:42:57;;;;;;;;;;;5.30;99.90;;;;;;5005155;28;20054;-72
2022/01/09 04:45:26;;;;;;;;;;;5.30;99.90;;;;;;5005688;28;20078;-72
2022/01/09 04:47:55;;;;;;;;;;;5.40;99.90;;;;;;5005389;28;20067;-72
2022/01/09 04:50:24;;;;;;;;;;;5.30;99.90;;;;;;5005652;28;20068;-72
2022/01/09 04:52:58;;;;;;;;;;;5.30;99.90;;;;;;5004767;28;20284;-72
2022/01/09 04:55:27;;;;;;;;;;;5.30;99.90;;;;;;5005241;28;20058;-72
2022/01/09 04:57:55;;;;;;;;;;;5.30;99.90;;;;;;5004705;28;21057;-72
2022/01/09 05:00:22;;;;;;;;;;;5.30;99.90;;;;;;5005954;28;20060;-71
2022/01/09 05:02:49;;;;;;;;;;;5.30;99.90;;;;;;5004819;28;20162;-72
2022/01/09 05:05:17;;;;;;;;;;;5.30;99.90;;;;;;5005606;28;20154;-73
2022/01/09 05:07:44;;;;;;;;;;;5.30;99.90;;;;;;5004685;28;20124;-70
2022/01/09 05:10:12;;;;;;;;;;;5.30;99.90;;;;;;5004643;28;20115;-72
2022/01/09 05:12:41;;;;;;;;;;;5.20;99.90;;;;;;5004002;28;20065;-72
2022/01/09 05:15:09;;;;;;;;;;;5.20;99.90;;;;;;5005116;28;20069;-72
2022/01/09 05:17:36;;;;;;;;;;;5.30;99.90;;;;;;5005356;28;21003;-72
2022/01/09 05:20:03;;;;;;;;;;;5.30;99.90;;;;;;5004706;28;20097;-72
2022/01/09 05:22:31;;;;;;;;;;;5.30;99.90;;;;;;5004589;28;20060;-72
2022/01/09 05:25:01;;;;;;;;;;;5.20;99.90;;;;;;5004928;28;20161;-73
2022/01/09 05:27:28;;;;;;;;;;;5.20;99.90;;;;;;5003747;28;20221;-72
2022/01/09 05:29:57;;;;;;;;;;;5.20;99.90;;;;;;5004279;28;20082;-72
2022/01/09 05:32:24;;;;;;;;;;;5.10;99.90;;;;;;5004191;28;20725;-73
2022/01/09 05:34:51;;;;;;;;;;;5.20;99.90;;;;;;5004487;28;20060;-72
2022/01/09 05:37:18;;;;;;;;;;;5.20;99.90;;;;;;5004475;28;20096;-74
2022/01/09 05:39:45;;;;;;;;;;;5.20;99.90;;;;;;5003777;28;21236;-73
2022/01/09 05:42:13;;;;;;;;;;;5.10;99.90;;;;;;5000318;28;20078;-72
2022/01/09 05:44:40;;;;;;;;;;;5.20;99.90;;;;;;5001016;28;20102;-73
2022/01/09 05:47:09;;;;;;;;;;;5.20;99.90;;;;;;5021031;28;20060;-72
2022/01/09 05:49:36;;;;;;;;;;;5.20;99.90;;;;;;5020805;28;20060;-72
2022/01/09 05:52:04;;;;;;;;;;;5.20;99.90;;;;;;5020974;28;20162;-72
2022/01/09 05:54:31;;;;;;;;;;;5.20;99.90;;;;;;5004488;28;20351;-72
2022/01/09 05:56:58;;;;;;;;;;;5.20;99.90;;;;;;5021249;28;21165;-73
2022/01/09 05:59:25;;;;;;;;;;;5.20;99.90;;;;;;5022179;28;20074;-72
2022/01/09 06:01:52;;;;;;;;;;;5.10;99.90;;;;;;5017195;28;20158;-72
2022/01/09 06:04:20;;;;;;;;;;;5.10;99.90;;;;;;5008336;28;20083;-73
2022/01/09 06:06:49;;;;;;;;;;;5.10;99.90;;;;;;4995629;28;20060;-74
2022/01/09 06:09:16;;;;;;;;;;;5.10;99.90;;;;;;5022989;28;20145;-73
2022/01/09 06:11:43;;;;;;;;;;;5.10;99.90;;;;;;5009063;28;20116;-72
2022/01/09 06:14:10;;;;;;;;;;;5.00;99.90;;;;;;5000857;28;20067;-72
2022/01/09 06:16:38;;;;;;;;;;;5.10;99.90;;;;;;5014694;28;20069;-70
2022/01/09 06:19:05;;;;;;;;;;;5.10;99.90;;;;;;5019565;28;20076;-72
2022/01/09 06:21:34;;;;;;;;;;;5.00;99.90;;;;;;5024161;28;20181;-72
2022/01/09 06:24:01;;;;;;;;;;;5.00;99.90;;;;;;5023949;28;20326;-73
2022/01/09 06:26:28;;;;;;;;;;;5.00;99.90;;;;;;5024720;28;20136;-72
2022/01/09 06:28:55;;;;;;;;;;;4.90;99.90;;;;;;5036153;22;20059;-71
2022/01/09 06:31:22;;;;;;;;;;;5.00;99.90;;;;;;5007153;28;20077;-70
2022/01/09 06:33:49;;;;;;;;;;;5.00;99.90;;;;;;5006369;28;20067;-71
2022/01/09 06:36:16;;;;;;;;;;;5.00;99.90;;;;;;5007048;28;20141;-71
2022/01/09 06:38:45;;;;;;;;;;;4.90;99.90;;;;;;5006842;28;20099;-71
2022/01/09 06:41:12;;;;;;;;;;;4.90;99.90;;;;;;5007874;28;21127;-72
2022/01/09 06:43:40;;;;;;;;;;;4.80;99.90;;;;;;5006780;28;20065;-71
2022/01/09 06:46:07;;;;;;;;;;;4.80;99.90;;;;;;5006968;28;20058;-71
2022/01/09 06:48:34;;;;;;;;;;;4.80;99.90;;;;;;5005577;28;20058;-72
2022/01/09 06:51:01;;;;;;;;;;;4.80;99.90;;;;;;5000267;28;20060;-71
2022/01/09 06:53:28;;;;;;;;;;;4.80;99.90;;;;;;5002789;28;21064;-71
2022/01/09 06:55:57;;;;;;;;;;;4.70;99.90;;;;;;5007922;28;20099;-71
2022/01/09 06:58:24;;;;;;;;;;;4.70;99.90;;;;;;5008611;28;21043;-72
2022/01/09 07:00:52;;;;;;;;;;;4.70;99.90;;;;;;5007373;28;20062;-72
2022/01/09 07:03:19;;;;;;;;;;;4.70;99.90;;;;;;5006180;28;20066;-71
2022/01/09 07:05:47;;;;;;;;;;;4.70;99.90;;;;;;5006023;28;20068;-72
2022/01/09 07:08:14;;;;;;;;;;;4.70;99.90;;;;;;5006125;28;20060;-71
2022/01/09 07:10:41;;;;;;;;;;;4.70;99.90;;;;;;5005784;28;20060;-71
2022/01/09 07:13:10;;;;;;;;;;;4.70;99.90;;;;;;5022510;28;20162;-71
2022/01/09 07:15:37;;;;;;;;;;;4.60;99.90;;;;;;5006062;28;20068;-71
2022/01/09 07:18:04;;;;;;;;;;;4.60;99.90;;;;;;5021795;28;20083;-72
2022/01/09 07:20:31;;;;;;;;;;;4.50;99.90;;;;;;5022822;28;20153;-71
2022/01/09 07:22:58;;;;;;;;;;;4.50;99.90;;;;;;5022505;28;20262;-71
2022/01/09 07:25:26;;;;;;;;;;;4.50;99.90;;;;;;5023023;28;20080;-72
2022/01/09 07:27:53;;;;;;;;;;;4.50;99.90;;;;;;5023246;28;20161;-71
2022/01/09 07:30:21;;;;;;;;;;;4.50;99.90;;;;;;5005629;28;20115;-72
2022/01/09 07:32:48;;;;;;;;;;;4.50;99.90;;;;;;5022156;28;20139;-71
2022/01/09 07:35:15;;;;;;;;;;;4.50;99.90;;;;;;5006713;28;20068;-72
2022/01/09 07:37:43;;;;;;;;;;;4.50;99.90;;;;;;5006325;28;20060;-72
2022/01/09 07:40:10;;;;;;;;;;;4.50;99.90;;;;;;5023077;28;20059;-71
2022/01/09 07:42:37;;;;;;;;;;;4.40;99.90;;;;;;5007100;28;20058;-71
2022/01/09 07:45:06;;;;;;;;;;;4.40;99.90;;;;;;5007007;28;20052;-71
2022/01/09 07:47:35;;;;;;;;;;;4.30;99.90;;;;;;5006019;28;20145;-70
2022/01/09 07:50:03;;;;;;;;;;;4.30;99.90;;;;;;5005591;28;20079;-72
2022/01/09 07:52:34;;;;;;;;;;;4.30;99.90;;;;;;5006327;28;20059;-70
2022/01/09 07:55:00;;;;;;;;;;;4.30;99.90;;;;;;5022566;28;20060;-71
2022/01/09 07:57:28;;;;;;;;;;;4.30;99.90;;;;;;5009312;28;20125;-70
2022/01/09 07:59:56;;;;;;;;;;;4.30;99.90;;;;;;5002356;28;20099;-71
2022/01/09 08:02:23;;;;;;;;;;;4.30;99.90;;;;;;5003859;28;20293;-71
2022/01/09 08:04:52;;;;;;;;;;;4.40;99.90;;;;;;5005454;28;20068;-71
2022/01/09 08:07:19;;;;;;;;;;;4.40;99.90;;;;;;5010040;28;20060;-71
2022/01/09 08:09:46;;;;;;;;;;;4.40;99.90;;;;;;5012771;28;20067;-71
2022/01/09 08:12:14;;;;;;;;;;;4.40;99.90;;;;;;5038443;28;20068;-71
2022/01/09 08:14:41;;;;;;;;;;;4.40;99.90;;;;;;5019059;28;20051;-71
2022/01/09 08:17:09;;;;;;;;;;;4.40;99.90;;;;;;5018564;28;20075;-72
2022/01/09 08:19:36;;;;;;;;;;;4.40;99.90;;;;;;5016332;28;20060;-72
2022/01/09 08:22:05;;;;;;;;;;;4.50;99.90;;;;;;5009476;28;20057;-71
2022/01/09 08:24:32;;;;;;;;;;;4.50;99.90;;;;;;5009289;28;20060;-71
2022/01/09 08:27:00;;;;;;;;;;;4.50;99.90;;;;;;5008756;28;20056;-71
2022/01/09 08:29:27;;;;;;;;;;;4.50;99.90;;;;;;5008350;28;21127;-71
2022/01/09 08:31:54;;;;;;;;;;;4.50;99.90;;;;;;5008647;28;20075;-70
2022/01/09 08:34:21;;;;;;;;;;;4.50;99.90;;;;;;5009028;28;21123;-71
2022/01/09 08:36:48;;;;;;;;;;;4.50;99.90;;;;;;5008715;28;20158;-71
2022/01/09 08:39:18;;;;;;;;;;;4.50;99.90;;;;;;5008647;28;20104;-70
2022/01/09 08:41:45;;;;;;;;;;;4.50;99.90;;;;;;5008772;28;20059;-70
2022/01/09 08:44:12;;;;;;;;;;;4.50;99.90;;;;;;5009259;28;20051;-70
2022/01/09 08:46:40;;;;;;;;;;;4.50;99.90;;;;;;5009438;28;20573;-70
2022/01/09 08:49:07;;;;;;;;;;;4.60;99.90;;;;;;5008063;28;20059;-71
2022/01/09 08:51:34;;;;;;;;;;;4.50;99.90;;;;;;5008547;28;20068;-70
2022/01/09 08:54:01;;;;;;;;;;;4.40;99.90;;;;;;5007419;28;20141;-71
2022/01/09 08:56:32;;;;;;;;;;;4.40;99.90;;;;;;5009030;28;20065;-70
2022/01/09 08:59:01;;;;;;;;;;;4.30;99.90;;;;;;5008012;28;20059;-70
2022/01/09 09:01:28;;;;;;;;;;;4.30;99.90;;;;;;5009546;28;20153;-71
2022/01/09 09:03:55;;;;;;;;;;;4.30;99.90;;;;;;5008375;28;20060;-71
2022/01/09 09:06:22;;;;;;;;;;;4.30;99.90;;;;;;5008600;28;20279;-72
2022/01/09 09:08:49;;;;;;;;;;;4.40;99.90;;;;;;5007381;28;20090;-70
2022/01/09 09:11:17;;;;;;;;;;;4.40;99.90;;;;;;5008523;28;20326;-70
2022/01/09 09:13:45;;;;;;;;;;;4.50;99.90;;;;;;5007950;28;20149;-70
2022/01/09 09:16:13;;;;;;;;;;;4.60;99.90;;;;;;5024942;28;20316;-70
2022/01/09 09:18:40;;;;;;;;;;;4.60;99.90;;;;;;5024443;28;20051;-70
2022/01/09 09:21:07;;;;;;;;;;;4.60;99.90;;;;;;5008064;28;20059;-70
2022/01/09 09:23:34;;;;;;;;;;;4.70;99.90;;;;;;5025109;28;20063;-70
2022/01/09 09:26:01;;;;;;;;;;;4.80;99.90;;;;;;5025447;28;20067;-71
2022/01/09 09:28:28;;;;;;;;;;;4.90;99.90;;;;;;5023979;28;20052;-70
2022/01/09 09:30:57;;;;;;;;;;;4.80;99.90;;;;;;5007532;28;20060;-71
2022/01/09 09:33:24;;;;;;;;;;;4.90;99.90;;;;;;5007057;28;20148;-71
2022/01/09 09:35:52;;;;;;;;;;;4.70;99.90;;;;;;5024424;28;20099;-70
2022/01/09 09:38:19;;;;;;;;;;;4.70;99.90;;;;;;5023645;28;21184;-71
2022/01/09 09:40:46;;;;;;;;;;;4.90;99.90;;;;;;5008471;28;20060;-71
2022/01/09 09:43:13;;;;;;;;;;;4.90;99.90;;;;;;5007570;28;20153;-72
2022/01/09 09:45:40;;;;;;;;;;;4.90;99.90;;;;;;5024752;28;20091;-72
2022/01/09 09:48:09;;;;;;;;;;;4.90;99.90;;;;;;5023994;28;20305;-71
2022/01/09 09:50:36;;;;;;;;;;;4.90;99.90;;;;;;5007651;28;21134;-71
2022/01/09 09:53:03;;;;;;;;;;;4.80;99.90;;;;;;5024110;28;20087;-71
2022/01/09 09:55:30;;;;;;;;;;;4.70;99.90;;;;;;5025278;28;20060;-72
2022/01/09 09:57:57;;;;;;;;;;;4.70;99.90;;;;;;5006449;28;20084;-71
2022/01/09 10:00:25;;;;;;;;;;;4.70;99.90;;;;;;5007252;28;21190;-72
2022/01/09 10:02:53;;;;;;;;;;;4.90;99.90;;;;;;5006134;28;20068;-71
2022/01/09 10:05:23;;;;;;;;;;;5.00;99.90;;;;;;5007162;28;20087;-72
2022/01/09 10:07:51;;;;;;;;;;;5.30;99.90;;;;;;5006504;28;20096;-72
2022/01/09 10:10:19;;;;;;;;;;;5.40;99.90;;;;;;5007056;28;20060;-72
2022/01/09 10:12:47;;;;;;;;;;;5.30;99.90;;;;;;5006092;28;21231;-71
2022/01/09 10:15:16;;;;;;;;;;;5.10;99.90;;;;;;5023575;28;20148;-71
2022/01/09 10:17:44;;;;;;;;;;;5.00;99.90;;;;;;5006857;28;20181;-70
2022/01/09 10:20:13;;;;;;;;;;;5.10;99.90;;;;;;5007087;28;20051;-71
2022/01/09 10:22:44;;;;;;;;;;;5.00;99.90;;;;;;5023119;28;20137;-71
2022/01/09 10:25:32;;;;;;;;;;;5.20;99.90;;;;;;5024001;28;20067;-71
2022/01/09 10:28:00;;;;;;;;;;;5.20;99.90;;;;;;5004980;28;20182;-71
2022/01/09 10:30:28;;;;;;;;;;;5.40;99.90;;;;;;5006383;28;20060;-70
2022/01/09 10:32:57;;;;;;;;;;;5.30;99.90;;;;;;5006607;28;21196;-71
2022/01/09 10:35:24;;;;;;;;;;;5.40;99.90;;;;;;5007107;28;21116;-71
2022/01/09 10:38:05;;;;;;;;;;;5.30;99.90;;;;;;5006718;28;20072;-71
2022/01/09 10:40:34;;;;;;;;;;;5.30;99.90;;;;;;5007391;28;20069;-71
2022/01/09 10:43:02;;;;;;;;;;;5.30;99.90;;;;;;5006260;28;20051;-71
2022/01/09 10:45:30;;;;;;;;;;;5.30;99.90;;;;;;5006942;28;20067;-70
2022/01/09 10:48:02;;;;;;;;;;;5.30;99.90;;;;;;5006079;28;20224;-71
2022/01/09 10:50:31;;;;;;;;;;;5.50;99.90;;;;;;5006906;28;20078;-71
2022/01/09 10:53:20;;;;;;;;;;;5.60;99.90;;;;;;5006259;28;20077;-71
2022/01/09 10:55:48;;;;;;;;;;;5.90;99.90;;;;;;5007143;28;20073;-71
2022/01/09 10:58:16;;;;;;;;;;;5.80;99.90;;;;;;5006000;28;20068;-71
2022/01/09 11:00:44;;;;;;;;;;;5.80;99.90;;;;;;5006515;28;20066;-71
2022/01/09 11:03:11;;;;;;;;;;;5.90;99.90;;;;;;5005491;28;20060;-71
2022/01/09 11:05:38;;;;;;;;;;;6.10;99.90;;;;;;5006917;28;20089;-71
2022/01/09 11:08:06;;;;;;;;;;;6.20;99.90;;;;;;5005796;28;20060;-71
2022/01/09 11:10:35;;;;;;;;;;;6.20;99.90;;;;;;5006420;28;21148;-70
2022/01/09 11:13:02;;;;;;;;;;;6.20;99.90;;;;;;5004839;28;21054;-71
2022/01/09 11:15:35;;;;;;;;;;;6.40;99.90;;;;;;5006215;28;20160;-71
2022/01/09 11:18:03;;;;;;;;;;;6.40;99.90;;;;;;5006466;28;20068;-70
2022/01/09 11:20:31;;;;;;;;;;;6.20;99.90;;;;;;5006497;28;21233;-70
2022/01/09 11:23:00;;;;;;;;;;;6.00;99.90;;;;;;5006401;28;20090;-70
2022/01/09 11:25:29;;;;;;;;;;;6.00;99.90;;;;;;5006325;28;21183;-70
2022/01/09 11:28:04;;;;;;;;;;;5.90;99.90;;;;;;5006136;28;20065;-70
2022/01/09 11:30:38;;;;;;;;;;;5.80;99.90;;;;;;5006517;28;20102;-70
2022/01/09 11:33:14;;;;;;;;;;;5.90;99.90;;;;;;5004756;28;20076;-71
2022/01/09 11:35:46;;;;;;;;;;;6.00;99.90;;;;;;5001508;28;20086;-70
2022/01/09 11:38:16;;;;;;;;;;;6.10;99.90;;;;;;5005436;28;20051;-71
2022/01/09 11:40:44;;;;;;;;;;;6.00;99.90;;;;;;5008390;28;20157;-70
2022/01/09 11:43:14;;;;;;;;;;;6.00;99.90;;;;;;5007047;28;20072;-70
2022/01/09 11:45:45;;;;;;;;;;;7.50;99.90;;;;;;5009073;28;20094;-70
2022/01/09 11:48:13;;;;;;;;;;;7.60;99.90;;;;;;5009225;28;20092;-70
2022/01/09 11:50:59;;;;;;;;;;;7.60;99.90;;;;;;5010074;28;20076;-70
2022/01/09 11:53:26;;;;;;;;;;;7.60;99.90;;;;;;5008707;28;20161;-71
2022/01/09 11:55:54;;;;;;;;;;;7.60;99.90;;;;;;5024297;28;20082;-71
2022/01/09 11:58:22;;;;;;;;;;;7.10;99.90;;;;;;5007950;28;20068;-70
2022/01/09 12:00:51;;;;;;;;;;;6.60;99.90;;;;;;5010228;28;20186;-73
2022/01/09 12:03:34;;;;;;;;;;;6.30;99.90;;;;;;5009061;28;20060;-70
2022/01/09 12:06:02;;;;;;;;;;;6.20;99.90;;;;;;5002781;28;20169;-70
2022/01/09 12:08:49;;;;;;;;;;;6.30;99.90;;;;;;5006657;28;20077;-70
2022/01/09 12:11:16;;;;;;;;;;;6.40;99.90;;;;;;5008289;28;20194;-69
2022/01/09 12:13:47;;;;;;;;;;;6.50;99.90;;;;;;5008861;28;20059;-72
2022/01/09 12:16:44;;;;;;;;;;;6.80;99.90;;;;;;5009968;28;20164;-71
2022/01/09 12:19:11;;;;;;;;;;;8.30;99.90;;;;;;5007950;28;20148;-71
2022/01/09 12:21:50;;;;;;;;;;;8.40;99.90;;;;;;5008404;28;20068;-71
2022/01/09 12:24:37;;;;;;;;;;;7.70;99.90;;;;;;5010170;28;21047;-71
2022/01/09 12:27:19;;;;;;;;;;;7.30;99.90;;;;;;5009810;28;20284;-71
2022/01/09 12:29:49;;;;;;;;;;;7.10;99.90;;;;;;5007190;28;20079;-71
2022/01/09 12:32:35;;;;;;;;;;;7.60;99.90;;;;;;5008603;28;20215;-71
2022/01/09 12:35:12;;;;;;;;;;;10.90;99.90;;;;;;5009117;28;20086;-71
2022/01/09 12:37:44;;;;;;;;;;;12.20;99.90;;;;;;5008741;28;20051;-69
2022/01/09 12:40:12;;;;;;;;;;;12.80;99.90;;;;;;5008902;28;20122;-71
2022/01/09 12:42:43;;;;;;;;;;;12.70;99.90;;;;;;5008601;28;20060;-70
2022/01/09 12:45:12;;;;;;;;;;;12.50;99.90;;;;;;5008773;28;20208;-70
2022/01/09 12:47:40;;;;;;;;;;;10.50;99.90;;;;;;5008140;28;20334;-69
2022/01/09 12:50:07;;;;;;;;;;;9.50;99.90;;;;;;5007952;28;20065;-69
2022/01/09 12:52:34;;;;;;;;;;;9.10;99.90;;;;;;5008212;28;20069;-70
2022/01/09 12:55:05;;;;;;;;;;;11.30;99.90;;;;;;5008800;28;20068;-71
2022/01/09 12:57:49;;;;;;;;;;;13.60;99.90;;;;;;5009392;28;21117;-71
2022/01/09 13:00:16;;;;;;;;;;;;;;;;;;5008485;28;20357;-70
2022/01/09 13:02:53;;;;;;;;;;;16.00;99.90;;;;;;5007431;28;20080;-70
2022/01/09 13:05:24;;;;;;;;;;;15.80;99.90;;;;;;5008394;28;20051;-70
2022/01/09 13:07:58;;;;;;;;;;;16.50;99.90;;;;;;5007911;28;20140;-71
2022/01/09 13:10:28;;;;;;;;;;;16.50;99.90;;;;;;5008563;28;20140;-70
2022/01/09 13:12:59;;;;;;;;;;;16.90;99.90;;;;;;5025073;28;21178;-71
2022/01/09 13:15:30;;;;;;;;;;;17.20;99.90;;;;;;5025244;28;20059;-71
2022/01/09 13:17:59;;;;;;;;;;;17.10;99.90;;;;;;5024515;28;20051;-71
2022/01/09 13:20:26;;;;;;;;;;;15.70;99.90;;;;;;5025681;28;20141;-70
2022/01/09 13:22:54;;;;;;;;;;;;;;;;;;5008371;28;20148;-70
2022/01/09 13:25:21;;;;;;;;;;;11.60;99.90;;;;;;5008152;28;20064;-70
2022/01/09 13:27:48;;;;;;;;;;;10.00;99.90;;;;;;5012722;28;20178;-70
2022/01/09 13:30:16;;;;;;;;;;;9.00;99.90;;;;;;5007584;28;21096;-70
2022/01/09 13:32:43;;;;;;;;;;;8.30;99.90;;;;;;5006945;28;20084;-70
2022/01/09 13:35:12;;;;;;;;;;;9.10;99.90;;;;;;5007463;28;20170;-70
2022/01/09 13:37:40;;;;;;;;;;;8.70;99.90;;;;;;5005418;28;20068;-69
2022/01/09 13:40:08;;;;;;;;;;;8.50;99.90;;;;;;5005176;28;21160;-69
2022/01/09 13:42:35;;;;;;;;;;;8.10;99.90;;;;;;5003190;28;20088;-69
2022/01/09 13:45:05;;;;;;;;;;;8.30;99.90;;;;;;5006069;28;21096;-69
2022/01/09 13:47:32;;;;;;;;;;;8.00;99.90;;;;;;5000585;28;21207;-70
2022/01/09 13:50:01;;;;;;;;;;;7.70;99.90;;;;;;5005473;28;20059;-70
2022/01/09 13:52:33;;;;;;;;;;;8.30;99.90;;;;;;5004204;28;21185;-71
2022/01/09 13:55:01;;;;;;;;;;;10.20;99.90;;;;;;5005732;28;20177;-70
2022/01/09 13:57:28;;;;;;;;;;;11.10;99.90;;;;;;5005195;28;20068;-70
2022/01/09 13:59:56;;;;;;;;;;;10.50;99.90;;;;;;5004696;28;20076;-70
2022/01/09 14:02:23;;;;;;;;;;;;;;;;;;5001773;28;20068;-69
2022/01/09 14:05:05;;;;;;;;;;;9.50;99.90;;;;;;5006494;28;20059;-70
2022/01/09 14:07:36;;;;;;;;;;;9.10;99.90;;;;;;5006393;28;20082;-70
2022/01/09 14:10:04;;;;;;;;;;;9.00;99.90;;;;;;5006907;28;20074;-70
2022/01/09 14:12:31;;;;;;;;;;;9.10;99.90;;;;;;5006696;28;20059;-70
2022/01/09 14:14:58;;;;;;;;;;;10.40;99.90;;;;;;5007136;28;20068;-70
2022/01/09 14:17:26;;;;;;;;;;;10.30;99.90;;;;;;5005225;28;21204;-70
2022/01/09 14:19:54;;;;;;;;;;;9.60;99.90;;;;;;5004810;28;20153;-70
2022/01/09 14:22:21;;;;;;;;;;;9.10;99.90;;;;;;5005765;28;20068;-69
2022/01/09 14:25:00;;;;;;;;;;;9.20;99.90;;;;;;4998799;28;20068;-69
2022/01/09 14:27:29;;;;;;;;;;;10.60;99.90;;;;;;5040175;28;20060;-69
2022/01/09 14:29:59;;;;;;;;;;;11.40;99.90;;;;;;5005474;28;21395;-70
2022/01/09 14:32:26;;;;;;;;;;;10.90;99.90;;;;;;5005716;28;20059;-69
2022/01/09 14:34:55;;;;;;;;;;;12.20;99.90;;;;;;5007187;28;20076;-70
2022/01/09 14:37:22;;;;;;;;;;;12.50;99.90;;;;;;5007206;28;20069;-71
2022/01/09 14:39:49;;;;;;;;;;;13.10;99.90;;;;;;5005820;28;20218;-70
2022/01/09 14:42:18;;;;;;;;;;;13.00;99.90;;;;;;5006220;28;20077;-70